Time;durP1;ratioP1;P1;durP2;ratioP2;P2;SDS_P1;SDS_P2;PMS_P1;PMS_P2;Temp;Humidity;BMP_temperature;BMP_pressure;BME280_temperature;BME280_humidity;BME280_pressure;Samples;Min_cycle;Max_cycle;Signal;HPM_P1;HPM_P2
2024/01/11 00:00:43;;;;;;;0.20;0.20;;;;;;;25.27;26.98;101706.66;7392973;19;20021;-51
2024/01/11 00:03:09;;;;;;;0.85;0.40;;;;;;;25.77;26.34;101708.19;7394254;19;20006;-51
2024/01/11 00:05:36;;;;;;;0.30;0.30;;;;;;;25.61;26.82;101701.38;7397076;19;20061;-51
2024/01/11 00:08:02;;;;;;;0.50;0.50;;;;;;;24.30;27.53;101716.22;7394265;19;20022;-51
2024/01/11 00:10:28;;;;;;;0.35;0.35;;;;;;;24.59;27.78;101701.25;7393097;19;20010;-51
2024/01/11 00:12:55;;;;;;;0.20;0.20;;;;;;;24.61;27.63;101702.25;7393829;19;20508;-51
2024/01/11 00:15:21;;;;;;;0.90;0.40;;;;;;;24.42;27.40;101709.13;7396353;19;20458;-51
2024/01/11 00:17:47;;;;;;;0.10;0.10;;;;;;;24.95;27.02;101708.47;7392110;19;20500;-51
2024/01/11 00:20:13;;;;;;;0.15;0.15;;;;;;;21.11;30.42;101709.13;7395165;19;20010;-51
2024/01/11 00:22:39;;;;;;;0.68;0.20;;;;;;;24.00;27.87;101708.31;7393941;19;20010;-51
2024/01/11 00:25:05;;;;;;;0.10;0.10;;;;;;;28.28;24.66;101699.19;7395967;19;20011;-51
2024/01/11 00:27:32;;;;;;;0.35;0.35;;;;;;;28.98;24.39;101690.72;7394015;19;20033;-51
2024/01/11 00:29:58;;;;;;;9.80;0.40;;;;;;;29.08;23.98;101694.66;7393966;19;20018;-51
2024/01/11 00:32:24;;;;;;;2.08;1.05;;;;;;;28.37;24.40;101701.56;7393797;19;20014;-51
2024/01/11 00:34:50;;;;;;;0.20;0.15;;;;;;;28.96;23.81;101699.13;7394969;19;20018;-51
2024/01/11 00:37:16;;;;;;;1.10;0.60;;;;;;;28.90;24.29;101705.00;7392876;19;20018;-51
2024/01/11 00:39:43;;;;;;;1.55;1.38;;;;;;;28.06;24.67;101707.50;7392965;19;20066;-51
2024/01/11 00:42:09;;;;;;;0.40;0.40;;;;;;;27.89;24.61;101704.97;7393382;19;20070;-51
2024/01/11 00:44:35;;;;;;;0.20;0.20;;;;;;;27.82;24.62;101708.50;7394372;19;20022;-51
2024/01/11 00:47:02;;;;;;;0.20;0.20;;;;;;;28.08;24.59;101699.91;7392064;19;20018;-51
2024/01/11 00:49:28;;;;;;;3.30;1.70;;;;;;;21.78;29.93;101710.31;7390759;19;20041;-51
2024/01/11 00:51:54;;;;;;;0.10;0.10;;;;;;;23.81;28.16;101715.09;7397929;19;20011;-51
2024/01/11 00:54:20;;;;;;;0.20;0.20;;;;;;;23.33;28.47;101707.75;7393177;19;20002;-51
2024/01/11 00:56:47;;;;;;;0.95;0.50;;;;;;;24.53;27.61;101703.38;7391758;19;20090;-51
2024/01/11 00:59:13;;;;;;;0.63;0.43;;;;;;;23.72;28.10;101716.19;7392926;19;20006;-51
2024/01/11 01:01:39;;;;;;;0.22;0.22;;;;;;;24.21;27.73;101707.97;7391914;19;20070;-51
2024/01/11 01:04:06;;;;;;;2.15;0.65;;;;;;;27.15;25.71;101696.78;7392707;19;20011;-51
2024/01/11 01:06:32;;;;;;;1.00;0.40;;;;;;;24.71;27.13;101716.97;7391381;19;20463;-51
2024/01/11 01:08:58;;;;;;;0.57;0.57;;;;;;;22.04;30.00;101712.25;7392147;19;20018;-51
2024/01/11 01:11:24;;;;;;;0.68;0.68;;;;;;;23.68;28.32;101717.75;7393401;19;20019;-51
2024/01/11 01:13:50;;;;;;;0.40;0.40;;;;;;;24.87;27.14;101721.78;7392683;19;20040;-51
2024/01/11 01:16:17;;;;;;;7.03;0.40;;;;;;;29.42;24.46;101706.78;7396318;19;20011;-60
2024/01/11 01:18:44;;;;;;;0.15;0.15;;;;;;;31.64;22.55;101700.44;7392003;19;20014;-52
2024/01/11 01:21:10;;;;;;;0.10;0.10;;;;;;;32.94;21.69;101692.69;7394838;19;20022;-60
2024/01/11 01:23:36;;;;;;;0.25;0.25;;;;;;;34.27;20.54;101691.06;7391575;19;20091;-61
2024/01/11 01:26:02;;;;;;;0.85;0.50;;;;;;;35.03;20.00;101684.16;7395814;19;20022;-60
2024/01/11 01:28:28;;;;;;;0.10;0.10;;;;;;;35.04;19.89;101685.69;7392820;19;20014;-52
2024/01/11 01:30:54;;;;;;;0.40;0.40;;;;;;;35.02;19.97;101682.63;7390858;19;20050;-52
2024/01/11 01:33:20;;;;;;;0.10;0.10;;;;;;;35.01;19.57;101686.88;7391509;19;20014;-52
2024/01/11 01:35:46;;;;;;;2.65;0.85;;;;;;;34.82;19.47;101681.78;7394041;19;20340;-52
2024/01/11 01:38:12;;;;;;;1.58;0.45;;;;;;;35.10;19.60;101686.16;7389558;19;20359;-52
2024/01/11 01:40:38;;;;;;;0.40;0.30;;;;;;;34.99;19.44;101678.00;7392686;19;20075;-60
2024/01/11 01:43:12;;;;;;;0.38;0.32;;;;;;;35.06;19.55;101695.28;7391540;19;20002;-60
2024/01/11 01:45:38;;;;;;;2.65;0.57;;;;;;;34.73;19.46;101690.41;7393972;19;20014;-60
2024/01/11 01:48:05;;;;;;;0.30;0.30;;;;;;;35.13;19.60;101693.63;7391838;19;20010;-60
2024/01/11 01:50:31;;;;;;;0.98;0.43;;;;;;;35.42;19.17;101691.56;7394216;19;20018;-60
2024/01/11 01:52:58;;;;;;;0.20;0.20;;;;;;;35.27;19.08;101696.84;7392142;19;20014;-61
2024/01/11 01:55:26;;;;;;;0.10;0.00;;;;;;;34.99;19.16;101692.50;7393974;19;20022;-60
2024/01/11 01:57:53;;;;;;;4.65;1.27;;;;;;;34.98;19.32;101702.53;7389157;19;20010;-60
2024/01/11 02:00:19;;;;;;;0.10;0.10;;;;;;;34.80;19.23;101701.13;7390808;19;20019;-60
2024/01/11 02:02:50;;;;;;;6.03;0.95;;;;;;;34.79;19.61;101705.38;7398679;19;20087;-60
2024/01/11 02:05:17;;;;;;;0.10;0.10;;;;;;;34.97;19.22;101709.72;7400108;19;20011;-60
2024/01/11 02:07:44;;;;;;;0.68;0.45;;;;;;;35.18;19.32;101712.84;7397785;19;20010;-60
2024/01/11 02:10:10;;;;;;;0.15;0.13;;;;;;;35.26;19.16;101718.53;7400962;19;20059;-60
2024/01/11 02:12:39;;;;;;;0.13;0.13;;;;;;;35.21;19.06;101720.34;7397950;19;20458;-60
2024/01/11 02:15:06;;;;;;;0.10;0.10;;;;;;;35.28;19.40;101727.38;7399718;19;20111;-60
2024/01/11 02:17:32;;;;;;;0.30;0.30;;;;;;;35.35;19.36;101721.44;7396900;19;20018;-60
2024/01/11 02:19:59;;;;;;;0.93;0.20;;;;;;;35.32;19.00;101728.47;7399901;19;20010;-60
2024/01/11 02:22:38;;;;;;;0.30;0.30;;;;;;;35.22;19.32;101730.53;7397922;19;20014;-60
2024/01/11 02:25:04;;;;;;;24.65;0.90;;;;;;;35.30;18.88;101737.00;7398699;19;20026;-60
2024/01/11 02:27:31;;;;;;;0.20;0.20;;;;;;;35.25;18.96;101732.25;7397505;19;20018;-60
2024/01/11 02:29:57;;;;;;;0.88;0.52;;;;;;;34.85;19.10;101732.69;7396166;19;20382;-60
2024/01/11 02:32:23;;;;;;;0.20;0.20;;;;;;;34.15;19.27;101729.81;7396330;19;20014;-60
2024/01/11 02:34:50;;;;;;;0.20;0.20;;;;;;;32.36;20.47;101732.28;7397308;19;20015;-60
2024/01/11 02:37:16;;;;;;;0.35;0.35;;;;;;;31.97;20.60;101735.91;7395106;19;20014;-60
2024/01/11 02:39:42;;;;;;;0.40;0.40;;;;;;;32.18;20.64;101742.94;7395621;19;20021;-60
2024/01/11 02:42:09;;;;;;;0.30;0.30;;;;;;;32.23;20.92;101738.31;7396717;19;20015;-60
2024/01/11 02:44:36;;;;;;;0.28;0.28;;;;;;;32.05;20.73;101733.78;7397553;19;20011;-60
2024/01/11 02:47:03;;;;;;;5.38;0.55;;;;;;;31.98;20.59;101738.22;7395639;19;20423;-60
2024/01/11 02:49:29;;;;;;;11.80;0.85;;;;;;;31.17;21.32;101738.50;7396143;19;20014;-60
2024/01/11 02:51:55;;;;;;;0.15;0.15;;;;;;;30.50;21.39;101742.81;7399800;19;20014;-60
2024/01/11 02:54:21;;;;;;;0.40;0.40;;;;;;;30.02;21.91;101749.47;7394692;19;20010;-61
2024/01/11 02:56:47;;;;;;;0.20;0.20;;;;;;;30.05;21.90;101741.81;7393628;19;20014;-58
2024/01/11 02:59:14;;;;;;;2.38;0.40;;;;;;;29.17;22.55;101748.72;7397553;19;20018;-58
2024/01/11 03:01:40;;;;;;;0.45;0.45;;;;;;;29.38;22.36;101745.78;7396907;19;20006;-61
2024/01/11 03:04:06;;;;;;;0.73;0.32;;;;;;;28.78;22.84;101757.47;7394330;19;20006;-60
2024/01/11 03:06:33;;;;;;;0.22;0.10;;;;;;;28.73;22.88;101755.50;7398518;19;20014;-61
2024/01/11 03:08:59;;;;;;;0.13;0.10;;;;;;;28.97;22.92;101753.09;7394600;19;20514;-60
2024/01/11 03:11:25;;;;;;;0.20;0.20;;;;;;;28.73;22.67;101764.88;7393954;19;20015;-61
2024/01/11 03:13:51;;;;;;;0.30;0.30;;;;;;;29.03;22.62;101752.94;7396838;19;20047;-61
2024/01/11 03:16:17;;;;;;;0.20;0.20;;;;;;;29.71;22.44;101757.16;7398929;19;20029;-59
2024/01/11 03:18:43;;;;;;;3.22;1.48;;;;;;;29.50;22.30;101758.53;7394872;19;20014;-59
2024/01/11 03:21:09;;;;;;;0.40;0.30;;;;;;;29.35;22.30;101761.25;7397450;19;20015;-59
2024/01/11 03:23:35;;;;;;;0.40;0.40;;;;;;;29.70;22.31;101767.09;7394814;19;20044;-59
2024/01/11 03:26:02;;;;;;;1.42;0.77;;;;;;;30.38;21.70;101758.88;7399533;19;20026;-59
2024/01/11 03:28:28;;;;;;;0.10;0.10;;;;;;;30.20;21.78;101762.00;7394463;19;20029;-59
2024/01/11 03:30:54;;;;;;;2.08;0.38;;;;;;;30.25;21.73;101769.72;7395663;19;20010;-59
2024/01/11 03:33:20;;;;;;;14.80;0.55;;;;;;;30.35;21.40;101756.34;7395819;19;20015;-59
2024/01/11 03:35:46;;;;;;;0.75;0.65;;;;;;;29.91;21.93;101764.94;7396668;19;20026;-59
2024/01/11 03:38:12;;;;;;;0.30;0.30;;;;;;;28.41;22.89;101776.53;7393419;19;20025;-59
2024/01/11 03:40:39;;;;;;;0.52;0.40;;;;;;;32.50;20.25;101768.22;7393763;19;20036;-59
2024/01/11 03:43:05;;;;;;;0.10;0.10;;;;;;;33.24;20.08;101770.44;7393790;19;20017;-59
2024/01/11 03:45:31;;;;;;;0.28;0.28;;;;;;;33.59;19.46;101772.06;7396060;19;20027;-59
2024/01/11 03:47:57;;;;;;;0.85;0.82;;;;;;;33.57;19.67;101774.75;7394011;19;20017;-59
2024/01/11 03:50:23;;;;;;;1.75;0.32;;;;;;;33.85;19.67;101773.53;7395547;19;20087;-60
2024/01/11 03:52:50;;;;;;;0.80;0.30;;;;;;;34.49;19.23;101775.28;7395738;19;20642;-59
2024/01/11 03:55:16;;;;;;;0.93;0.50;;;;;;;34.67;18.92;101771.00;7396181;19;20097;-59
2024/01/11 03:57:44;;;;;;;0.20;0.20;;;;;;;34.42;19.44;101771.13;7392669;19;20018;-59
2024/01/11 04:00:10;;;;;;;0.10;0.10;;;;;;;34.62;18.78;101766.25;7392935;19;20010;-59
2024/01/11 04:02:36;;;;;;;0.88;0.70;;;;;;;34.66;19.20;101769.47;7393331;19;20017;-59
2024/01/11 04:05:03;;;;;;;0.30;0.30;;;;;;;34.57;19.12;101765.13;7393828;19;20396;-59
2024/01/11 04:07:29;;;;;;;0.10;0.10;;;;;;;34.63;18.78;101764.88;7395135;19;20011;-59
2024/01/11 04:09:55;;;;;;;1.20;0.52;;;;;;;34.71;19.26;101763.41;7393970;19;20492;-59
2024/01/11 04:12:21;;;;;;;1.00;0.52;;;;;;;34.97;19.00;101770.53;7392948;19;20022;-59
2024/01/11 04:14:47;;;;;;;0.57;0.35;;;;;;;34.86;19.16;101765.31;7395112;19;20458;-59
2024/01/11 04:17:13;;;;;;;0.95;0.40;;;;;;;34.46;19.25;101764.91;7393631;19;20011;-59
2024/01/11 04:19:40;;;;;;;0.52;0.50;;;;;;;34.21;19.12;101762.13;7392497;19;20377;-59
2024/01/11 04:22:06;;;;;;;0.10;0.10;;;;;;;34.00;19.50;101767.56;7394175;19;20007;-59
2024/01/11 04:24:32;;;;;;;0.20;0.20;;;;;;;34.36;18.95;101782.19;7392557;19;20011;-59
2024/01/11 04:26:58;;;;;;;0.28;0.22;;;;;;;34.17;18.88;101774.16;7394292;19;20015;-59
2024/01/11 04:29:24;;;;;;;0.30;0.30;;;;;;;34.01;19.23;101772.00;7392449;19;20351;-59
2024/01/11 04:31:50;;;;;;;0.30;0.30;;;;;;;33.56;19.37;101779.78;7391853;19;20065;-59
2024/01/11 04:34:17;;;;;;;1.65;0.28;;;;;;;34.32;19.23;101773.94;7391527;19;20038;-59
2024/01/11 04:36:43;;;;;;;0.20;0.20;;;;;;;34.52;18.87;101779.91;7395585;19;20010;-59
2024/01/11 04:39:09;;;;;;;0.28;0.28;;;;;;;34.67;18.86;101776.78;7393359;19;20357;-59
2024/01/11 04:41:38;;;;;;;0.60;0.38;;;;;;;34.26;19.05;101782.09;7393227;19;20703;-59
2024/01/11 04:44:05;;;;;;;1.75;0.55;;;;;;;33.73;19.29;101790.59;7393507;19;20018;-59
2024/01/11 04:46:31;;;;;;;0.20;0.20;;;;;;;33.75;19.30;101781.34;7395833;19;20010;-59
2024/01/11 04:48:57;;;;;;;0.77;0.77;;;;;;;33.61;19.36;101780.91;7392966;19;20007;-59
2024/01/11 04:51:23;;;;;;;0.43;0.35;;;;;;;33.41;19.35;101779.91;7397282;19;20059;-59
2024/01/11 04:53:50;;;;;;;11.18;1.05;;;;;;;33.55;19.44;101783.25;7397336;19;20018;-59
2024/01/11 04:56:16;;;;;;;0.20;0.20;;;;;;;33.65;19.50;101786.25;7394807;19;20010;-59
2024/01/11 04:58:44;;;;;;;2.92;0.77;;;;;;;33.34;19.46;101797.28;7392654;19;20023;-59
2024/01/11 05:01:17;;;;;;;0.30;0.30;;;;;;;33.16;19.64;101795.72;7391217;19;20067;-59
2024/01/11 05:03:45;;;;;;;0.73;0.28;;;;;;;33.20;19.52;101793.19;7391176;19;20011;-59
2024/01/11 05:06:19;;;;;;;0.60;0.10;;;;;;;33.16;19.65;101802.25;7395228;19;20011;-60
2024/01/11 05:08:51;;;;;;;0.20;0.20;;;;;;;33.28;19.69;101799.66;7392943;19;20015;-59
2024/01/11 05:11:23;;;;;;;2.92;0.28;;;;;;;33.63;19.43;101813.63;7391653;19;20010;-59
2024/01/11 05:13:51;;;;;;;2.28;0.60;;;;;;;33.26;19.64;101820.47;7391099;19;20090;-59
2024/01/11 05:16:18;;;;;;;0.17;0.17;;;;;;;33.40;19.58;101820.94;7393669;19;20027;-59
2024/01/11 05:18:45;;;;;;;0.20;0.20;;;;;;;33.29;19.55;101818.50;7392768;19;20070;-59
2024/01/11 05:21:12;;;;;;;0.98;0.55;;;;;;;33.28;19.65;101822.78;7393902;19;20173;-59
2024/01/11 05:23:38;;;;;;;1.13;0.63;;;;;;;33.08;19.79;101821.00;7391058;19;20069;-59
2024/01/11 05:26:04;;;;;;;0.60;0.50;;;;;;;33.13;19.70;101829.44;7393968;19;20007;-59
2024/01/11 05:28:30;;;;;;;0.47;0.32;;;;;;;33.16;19.96;101836.16;7392373;19;20021;-59
2024/01/11 05:30:56;;;;;;;5.57;0.82;;;;;;;33.32;20.00;101840.44;7390396;19;20036;-59
2024/01/11 05:33:22;;;;;;;2.00;0.35;;;;;;;33.35;19.45;101842.19;7390072;19;20471;-59
2024/01/11 05:35:48;;;;;;;0.50;0.32;;;;;;;33.33;19.60;101842.00;7398490;19;20368;-59
2024/01/11 05:38:14;;;;;;;0.22;0.20;;;;;;;33.24;19.34;101836.88;7396320;19;20082;-59
2024/01/11 05:40:41;;;;;;;3.00;0.77;;;;;;;33.15;19.71;101837.50;7397964;19;20015;-59
2024/01/11 05:43:07;;;;;;;0.45;0.45;;;;;;;32.97;19.58;101835.84;7396389;19;20017;-59
2024/01/11 05:45:33;;;;;;;5.25;0.95;;;;;;;32.96;20.01;101837.22;7397955;19;20022;-59
2024/01/11 05:47:59;;;;;;;0.20;0.20;;;;;;;33.10;19.69;101847.16;7399547;19;20507;-59
2024/01/11 05:50:26;;;;;;;0.55;0.52;;;;;;;33.00;19.84;101843.38;7400810;19;20034;-59
2024/01/11 05:52:53;;;;;;;1.10;0.10;;;;;;;33.01;20.02;101857.22;7398994;19;20015;-59
2024/01/11 05:55:20;;;;;;;0.30;0.30;;;;;;;33.12;19.61;101856.00;7398615;19;20037;-59
2024/01/11 05:57:46;;;;;;;1.17;0.70;;;;;;;33.11;19.47;101854.47;7397312;19;20011;-59
2024/01/11 06:00:12;;;;;;;0.95;0.73;;;;;;;33.18;19.73;101865.97;7399177;19;20101;-59
2024/01/11 06:02:38;;;;;;;0.40;0.40;;;;;;;33.22;19.69;101868.47;7399061;19;20027;-60
2024/01/11 06:05:08;;;;;;;0.20;0.20;;;;;;;33.11;19.68;101871.81;7397412;19;20043;-59
2024/01/11 06:07:34;;;;;;;0.32;0.30;;;;;;;33.08;19.62;101875.84;7396862;19;20059;-59
2024/01/11 06:10:02;;;;;;;0.32;0.32;;;;;;;33.19;19.73;101875.41;7398410;19;20052;-59
2024/01/11 06:12:29;;;;;;;0.40;0.40;;;;;;;33.21;19.81;101872.69;7398222;19;20674;-59
2024/01/11 06:14:55;;;;;;;0.70;0.38;;;;;;;33.27;19.61;101879.00;7398310;19;20104;-59
2024/01/11 06:17:21;;;;;;;0.30;0.30;;;;;;;33.27;19.35;101873.22;7397036;19;20462;-59
2024/01/11 06:19:47;;;;;;;0.63;0.35;;;;;;;33.18;19.61;101876.78;7397150;19;20469;-59
2024/01/11 06:22:13;;;;;;;0.80;0.38;;;;;;;33.19;19.57;101886.97;7396273;19;20015;-59
2024/01/11 06:24:39;;;;;;;0.47;0.47;;;;;;;33.18;19.72;101885.44;7397028;19;20412;-59
2024/01/11 06:27:05;;;;;;;0.40;0.35;;;;;;;33.19;19.52;101886.97;7400127;19;20022;-59
2024/01/11 06:29:32;;;;;;;2.00;0.20;;;;;;;33.19;19.64;101893.50;7397453;19;20014;-59
2024/01/11 06:31:58;;;;;;;0.40;0.40;;;;;;;33.14;19.80;101887.94;7396224;19;20062;-59
2024/01/11 06:34:25;;;;;;;2.25;0.57;;;;;;;33.03;19.91;101889.16;7396967;19;20025;-59
2024/01/11 06:36:51;;;;;;;0.10;0.00;;;;;;;33.09;19.74;101886.06;7399628;19;20010;-59
2024/01/11 06:39:17;;;;;;;0.30;0.20;;;;;;;33.11;19.67;101889.13;7395012;19;20019;-59
2024/01/11 06:41:43;;;;;;;0.65;0.65;;;;;;;33.17;19.72;101898.34;7397823;19;20018;-59
2024/01/11 06:44:09;;;;;;;0.30;0.30;;;;;;;33.07;19.57;101891.66;7395414;19;20351;-59
2024/01/11 06:46:36;;;;;;;0.30;0.15;;;;;;;32.98;19.95;101893.03;7399435;19;20011;-59
2024/01/11 06:49:02;;;;;;;0.40;0.32;;;;;;;33.15;20.20;101898.94;7397106;19;20372;-59
2024/01/11 06:51:28;;;;;;;3.05;0.43;;;;;;;33.28;19.83;101900.78;7399627;19;20015;-59
2024/01/11 06:53:54;;;;;;;0.10;0.10;;;;;;;33.25;19.89;101901.94;7395496;19;20033;-59
2024/01/11 06:56:23;;;;;;;5.57;0.50;;;;;;;33.19;19.57;101905.06;7398175;19;20455;-59
2024/01/11 06:58:50;;;;;;;1.48;0.52;;;;;;;33.22;19.88;101909.69;7395158;19;20011;-59
2024/01/11 07:01:17;;;;;;;0.20;0.20;;;;;;;33.42;19.89;101913.56;7396927;19;20421;-59
2024/01/11 07:03:43;;;;;;;5.05;0.47;;;;;;;33.52;19.60;101923.94;7395581;19;20003;-59
2024/01/11 07:06:09;;;;;;;3.75;0.38;;;;;;;33.50;19.75;101920.06;7397382;19;20018;-59
2024/01/11 07:08:35;;;;;;;0.43;0.43;;;;;;;33.56;19.45;101923.53;7396043;19;20014;-59
2024/01/11 07:11:02;;;;;;;0.82;0.82;;;;;;;33.63;19.75;101931.38;7397503;19;20051;-59
2024/01/11 07:13:29;;;;;;;0.20;0.20;;;;;;;33.68;19.71;101939.03;7396565;19;20029;-59
2024/01/11 07:15:57;;;;;;;9.63;1.20;;;;;;;33.66;19.61;101938.84;7397942;19;20094;-59
2024/01/11 07:18:24;;;;;;;0.32;0.20;;;;;;;33.54;19.59;101950.13;7391964;19;20027;-59
2024/01/11 07:20:51;;;;;;;0.60;0.60;;;;;;;33.66;19.93;101947.53;7396077;19;20415;-59
2024/01/11 07:23:19;;;;;;;0.57;0.40;;;;;;;33.81;19.82;101950.28;7394310;19;20014;-59
2024/01/11 07:25:47;;;;;;;0.65;0.20;;;;;;;33.89;19.55;101956.81;7395386;19;20025;-59
2024/01/11 07:28:13;;;;;;;4.40;0.90;;;;;;;33.90;19.32;101964.09;7394542;19;20019;-60
2024/01/11 07:30:39;;;;;;;2.38;0.90;;;;;;;33.87;19.95;101965.31;7396581;19;20011;-60
2024/01/11 07:33:06;;;;;;;0.90;0.57;;;;;;;33.77;19.63;101961.50;7396062;19;20020;-59
2024/01/11 07:35:32;;;;;;;0.35;0.35;;;;;;;33.68;19.85;101959.25;7395114;19;20491;-59
2024/01/11 07:37:58;;;;;;;1.85;1.45;;;;;;;33.86;19.48;101952.19;7392430;19;20018;-59
2024/01/11 07:40:25;;;;;;;2.20;0.95;;;;;;;33.94;19.55;101952.88;7394368;19;20354;-59
2024/01/11 07:42:51;;;;;;;2.80;0.63;;;;;;;34.09;19.38;101952.78;7395077;19;20014;-59
2024/01/11 07:45:18;;;;;;;1.40;0.77;;;;;;;34.19;19.08;101953.66;7393883;19;20014;-59
2024/01/11 07:47:45;;;;;;;3.50;0.75;;;;;;;34.17;19.45;101965.06;7395150;19;20011;-59
2024/01/11 07:50:12;;;;;;;0.55;0.43;;;;;;;33.90;19.50;101958.31;7393558;19;20036;-60
2024/01/11 07:52:41;;;;;;;2.45;0.85;;;;;;;33.99;19.39;101966.34;7394164;19;20030;-59
2024/01/11 07:55:08;;;;;;;6.40;1.08;;;;;;;33.99;19.39;101957.69;7395754;19;20034;-59
2024/01/11 07:57:34;;;;;;;0.70;0.70;;;;;;;34.05;19.63;101964.00;7392312;19;20015;-59
2024/01/11 08:00:01;;;;;;;2.17;0.63;;;;;;;33.88;19.34;101960.28;7393147;19;20014;-59
2024/01/11 08:02:27;;;;;;;0.40;0.40;;;;;;;33.37;19.48;101963.69;7394504;19;20022;-59
2024/01/11 08:04:53;;;;;;;0.20;0.20;;;;;;;33.16;19.84;101960.34;7393506;19;20011;-59
2024/01/11 08:07:20;;;;;;;1.85;0.73;;;;;;;33.14;19.64;101963.03;7398977;19;20053;-59
2024/01/11 08:09:49;;;;;;;1.23;0.95;;;;;;;32.81;19.97;101960.06;7395342;19;20013;-59
2024/01/11 08:12:18;;;;;;;2.28;1.17;;;;;;;32.37;20.53;101955.94;7396427;19;20022;-59
2024/01/11 08:14:46;;;;;;;1.33;0.45;;;;;;;32.57;20.27;101952.06;7396424;19;20786;-59
2024/01/11 08:17:14;;;;;;;4.72;0.98;;;;;;;32.63;20.37;101964.19;7394072;19;20017;-59
2024/01/11 08:19:43;;;;;;;1.40;0.93;;;;;;;32.58;20.21;101959.38;7397579;19;20033;-59
2024/01/11 08:22:11;;;;;;;3.60;0.55;;;;;;;32.57;20.54;101957.09;7396771;19;20069;-59
2024/01/11 08:24:38;;;;;;;1.60;1.10;;;;;;;32.64;20.45;101959.94;7397177;19;20006;-59
2024/01/11 08:27:04;;;;;;;5.75;1.65;;;;;;;32.67;20.54;101973.22;7396538;19;20007;-60
2024/01/11 08:29:30;;;;;;;3.70;0.95;;;;;;;32.72;20.35;101983.00;7397608;19;20013;-60
2024/01/11 08:31:56;;;;;;;0.68;0.57;;;;;;;32.56;20.36;101976.50;7396596;19;20019;-60
2024/01/11 08:34:23;;;;;;;0.35;0.35;;;;;;;32.53;20.77;101977.66;7396612;19;20010;-60
2024/01/11 08:36:49;;;;;;;2.83;1.05;;;;;;;32.55;20.86;101977.84;7395857;19;20027;-60
2024/01/11 08:39:16;;;;;;;1.23;0.77;;;;;;;32.25;20.93;101972.09;7396546;19;20459;-60
2024/01/11 08:41:42;;;;;;;0.47;0.47;;;;;;;32.11;20.93;101985.19;7397533;19;20006;-60
2024/01/11 08:44:09;;;;;;;1.08;0.98;;;;;;;32.36;20.85;101970.91;7396505;19;20508;-60
2024/01/11 08:46:35;;;;;;;7.43;1.55;;;;;;;32.41;20.89;101976.50;7395097;19;20337;-60
2024/01/11 08:49:05;;;;;;;2.33;1.52;;;;;;;32.31;20.88;101981.34;7396681;19;20014;-60
2024/01/11 08:51:34;;;;;;;1.60;0.93;;;;;;;32.21;20.80;101994.78;7397028;19;20034;-60
2024/01/11 08:54:00;;;;;;;0.35;0.35;;;;;;;32.06;20.86;102007.09;7395547;19;20015;-60
2024/01/11 08:56:30;;;;;;;1.65;0.95;;;;;;;32.21;20.86;102000.56;7392415;19;20011;-60
2024/01/11 08:58:58;;;;;;;1.85;0.55;;;;;;;32.27;21.09;102012.66;7390921;19;20015;-60
2024/01/11 09:01:24;;;;;;;1.98;0.63;;;;;;;32.34;21.20;102014.00;7393031;19;20111;-60
2024/01/11 09:03:51;;;;;;;0.63;0.50;;;;;;;32.46;20.80;102021.72;7392355;19;20017;-60
2024/01/11 09:06:17;;;;;;;2.30;0.60;;;;;;;32.49;20.87;102017.69;7393058;19;20022;-60
2024/01/11 09:08:43;;;;;;;1.23;0.35;;;;;;;32.42;21.01;102014.78;7392756;19;20019;-60
2024/01/11 09:11:12;;;;;;;1.35;0.57;;;;;;;32.46;21.21;102029.59;7395996;19;20340;-60
2024/01/11 09:13:40;;;;;;;2.33;0.88;;;;;;;32.80;20.73;102033.59;7399275;19;20463;-60
2024/01/11 09:16:06;;;;;;;2.55;0.57;;;;;;;33.10;20.64;102031.97;7402764;19;20021;-60
2024/01/11 09:18:33;;;;;;;0.43;0.25;;;;;;;33.20;20.87;102036.56;7397118;19;20019;-60
2024/01/11 09:20:59;;;;;;;0.82;0.63;;;;;;;33.16;20.80;102036.19;7403258;19;20015;-60
2024/01/11 09:23:25;;;;;;;0.28;0.10;;;;;;;33.27;20.68;102050.22;7398446;19;20392;-60
2024/01/11 09:25:51;;;;;;;1.50;0.55;;;;;;;33.52;20.50;102047.44;7400398;19;20049;-59
2024/01/11 09:28:17;;;;;;;0.22;0.17;;;;;;;33.67;21.18;102056.03;7399956;19;20014;-59
2024/01/11 09:30:43;;;;;;;2.47;0.73;;;;;;;33.84;20.92;102050.31;7398234;19;20021;-60
2024/01/11 09:33:09;;;;;;;0.90;0.57;;;;;;;33.85;20.84;102060.53;7399952;19;20011;-59
2024/01/11 09:35:36;;;;;;;2.85;0.50;;;;;;;33.87;21.00;102063.63;7399306;19;20354;-59
2024/01/11 09:38:02;;;;;;;0.82;0.57;;;;;;;33.93;21.14;102066.25;7395711;19;20014;-60
2024/01/11 09:40:28;;;;;;;0.25;0.25;;;;;;;34.04;20.90;102078.19;7398954;19;20015;-59
2024/01/11 09:42:54;;;;;;;1.00;0.85;;;;;;;34.22;20.47;102073.97;7397694;19;20462;-60
2024/01/11 09:45:20;;;;;;;0.50;0.50;;;;;;;34.20;20.66;102073.81;7397995;19;20015;-60
2024/01/11 09:47:50;;;;;;;3.55;0.40;;;;;;;33.91;20.95;102081.31;7397565;19;20010;-60
2024/01/11 09:50:20;;;;;;;2.08;1.92;;;;;;;33.79;21.15;102083.13;7400647;19;20018;-59
2024/01/11 09:52:49;;;;;;;0.65;0.15;;;;;;;33.90;21.15;102079.78;7396920;19;20530;-60
2024/01/11 09:55:17;;;;;;;0.68;0.60;;;;;;;34.03;21.15;102082.41;7397312;19;20021;-60
2024/01/11 09:57:48;;;;;;;1.58;1.02;;;;;;;34.26;20.93;102076.47;7397110;19;20463;-60
2024/01/11 10:00:18;;;;;;;4.28;0.50;;;;;;;34.28;20.89;102083.19;7398263;19;20022;-60
2024/01/11 10:02:47;;;;;;;0.15;0.15;;;;;;;34.33;20.86;102087.97;7399137;19;20015;-60
2024/01/11 10:05:14;;;;;;;0.95;0.82;;;;;;;34.03;21.07;102082.41;7396692;19;20336;-60
2024/01/11 10:07:41;;;;;;;4.93;0.55;;;;;;;34.05;21.05;102076.81;7398060;19;20022;-60
2024/01/11 10:10:08;;;;;;;2.38;0.80;;;;;;;34.39;20.77;102072.50;7397546;19;20722;-60
2024/01/11 10:12:35;;;;;;;0.22;0.22;;;;;;;34.82;20.97;102069.81;7398579;19;20011;-60
2024/01/11 10:15:09;;;;;;;0.95;0.90;;;;;;;34.86;20.91;102075.94;7396736;19;20022;-60
2024/01/11 10:17:36;;;;;;;1.95;0.45;;;;;;;34.95;21.00;102083.19;7395445;19;20017;-60
2024/01/11 10:20:03;;;;;;;8.95;1.05;;;;;;;35.25;20.96;102082.09;7396640;19;20015;-61
2024/01/11 10:22:29;;;;;;;21.90;2.40;;;;;;;35.52;20.54;102089.50;7396474;19;20024;-60
2024/01/11 10:25:13;;;;;;;7.20;1.83;;;;;;;35.53;20.55;102096.06;7396522;19;20014;-60
2024/01/11 10:27:45;;;;;;;1.85;0.73;;;;;;;35.02;21.00;102093.97;7400750;19;20074;-60
2024/01/11 10:30:16;;;;;;;1.00;0.68;;;;;;;34.54;20.94;102102.13;7398065;19;20015;-61
2024/01/11 10:32:44;;;;;;;0.30;0.30;;;;;;;34.28;21.17;102097.66;7397629;19;20023;-60
2024/01/11 10:35:10;;;;;;;0.38;0.38;;;;;;;34.47;21.15;102102.16;7395922;19;20018;-60
2024/01/11 10:37:40;;;;;;;0.35;0.35;;;;;;;34.34;20.95;102095.31;7394770;19;20015;-60
2024/01/11 10:40:12;;;;;;;0.45;0.45;;;;;;;34.27;21.53;102101.91;7395782;19;20014;-61
2024/01/11 10:42:46;;;;;;;0.88;0.60;;;;;;;34.84;20.88;102098.16;7397501;19;20030;-61
2024/01/11 10:45:16;;;;;;;0.25;0.25;;;;;;;34.87;20.91;102105.69;7395742;19;20031;-61
2024/01/11 10:47:51;;;;;;;0.85;0.55;;;;;;;34.73;20.99;102118.94;7398298;19;20006;-60
2024/01/11 10:50:19;;;;;;;1.35;0.50;;;;;;;34.90;20.74;102110.25;7396676;19;20490;-60
2024/01/11 10:53:02;;;;;;;0.32;0.28;;;;;;;34.84;20.76;102119.22;7397621;19;20010;-60
2024/01/11 10:55:33;;;;;;;0.10;0.10;;;;;;;34.91;20.82;102108.91;7396418;19;20023;-60
2024/01/11 10:58:01;;;;;;;0.10;0.10;;;;;;;34.95;20.85;102124.50;7396004;19;20018;-60
2024/01/11 11:00:28;;;;;;;2.85;0.55;;;;;;;35.07;20.77;102119.00;7395870;19;20474;-60
2024/01/11 11:02:55;;;;;;;2.78;0.65;;;;;;;35.17;20.98;102127.78;7395752;19;20640;-60
2024/01/11 11:05:25;;;;;;;0.40;0.40;;;;;;;34.99;20.90;102124.88;7395062;19;20035;-60
2024/01/11 11:07:52;;;;;;;0.50;0.50;;;;;;;35.06;21.00;102126.16;7396863;19;20395;-52
2024/01/11 11:10:19;;;;;;;0.55;0.20;;;;;;;35.01;21.12;102121.38;7394602;19;20011;-52
2024/01/11 11:12:46;;;;;;;0.20;0.20;;;;;;;35.04;21.18;102129.63;7396750;19;20010;-52
2024/01/11 11:15:13;;;;;;;3.03;0.60;;;;;;;35.01;20.89;102121.38;7395162;19;20014;-52
2024/01/11 11:17:41;;;;;;;14.95;0.43;;;;;;;35.07;21.05;102136.38;7393933;19;20011;-52
2024/01/11 11:20:11;;;;;;;0.55;0.45;;;;;;;35.07;20.81;102130.59;7395347;19;20011;-52
2024/01/11 11:22:40;;;;;;;0.75;0.52;;;;;;;35.16;20.83;102132.03;7395703;19;20363;-52